Time,TemperatureF,DewpointF,PressureIn,WindDirection,WindDirectionDegrees,WindSpeedMPH,WindSpeedGustMPH,Humidity,HourlyPrecipIn,Conditions,Clouds,dailyrainin,SolarRadiationWatts/m^2,SoftwareType,DateUTC
2013-05-05 00:01:00,52.4,47.6,29.92,East,90,9.0,11.0,84,0.00,,,0.00,0,HR-IXPWINDi_r2_v1.2.,2013-05-05 04:01:00,
2013-05-05 00:06:00,52.9,47.8,29.91,NNE,26,6.0,17.0,83,0.00,,,0.00,0,HR-IXPWINDi_r2_v1.2.,2013-05-05 04:06:00,
2013-05-05 00:11:00,53.2,47.8,29.91,NNE,13,4.0,20.0,82,0.00,,,0.00,0,HR-IXPWINDi_r2_v1.2.,2013-05-05 04:11:00,
2013-05-05 00:16:00,53.5,47.8,29.91,NW,315,2.0,20.0,81,0.00,,,0.01,0,HR-IXPWINDi_r2_v1.2.,2013-05-05 04:16:00,
2013-05-05 00:21:00,53.0,47.6,29.92,SSW,211,3.0,13.0,82,0.00,,,0.01,0,HR-IXPWINDi_r2_v1.2.,2013-05-05 04:21:00,
2013-05-05 00:26:00,52.9,47.8,29.92,NE,34,5.0,9.0,83,0.00,,,0.01,0,HR-IXPWINDi_r2_v1.2.,2013-05-05 04:26:00,
2013-05-05 00:32:00,53.8,47.4,29.92,ESE,116,6.0,24.0,79,0.00,,,0.01,0,HR-IXPWINDi_r2_v1.2.,2013-05-05 04:32:00,
2013-05-05 00:37:00,53.9,47.5,29.92,WNW,294,0.0,24.0,79,0.00,,,0.01,0,HR-IXPWINDi_r2_v1.2.,2013-05-05 04:37:00,
2013-05-05 00:42:00,54.2,47.4,29.93,West,261,4.0,13.0,78,0.00,,,0.01,0,HR-IXPWINDi_r2_v1.2.,2013-05-05 04:42:00,
2013-05-05 00:47:00,54.6,47.5,29.93,NW,313,3.0,15.0,77,0.00,,,0.01,0,HR-IXPWINDi_r2_v1.2.,2013-05-05 04:47:00,
2013-05-05 00:52:00,54.7,47.2,29.92,NNE,30,9.0,16.0,76,0.00,,,0.01,0,HR-IXPWINDi_r2_v1.2.,2013-05-05 04:52:00,
2013-05-05 00:57:00,54.8,47.0,29.92,NE,45,4.0,16.0,75,0.00,,,0.01,0,HR-IXPWINDi_r2_v1.2.,2013-05-05 04:57:00,
2013-05-05 01:03:00,54.8,47.3,29.93,ENE,69,6.0,16.0,76,0.00,,,0.01,0,HR-IXPWINDi_r2_v1.2.,2013-05-05 05:03:00,
2013-05-05 01:08:00,54.5,47.4,29.94,SE,126,14.0,18.0,77,0.00,,,0.01,0,HR-IXPWINDi_r2_v1.2.,2013-05-05 05:08:00,
2013-05-05 01:13:00,54.6,47.1,29.93,SE,131,6.0,21.0,76,0.00,,,0.01,0,HR-IXPWINDi_r2_v1.2.,2013-05-05 05:13:00,
2013-05-05 01:18:00,54.3,47.5,29.92,NE,38,5.0,21.0,78,0.00,,,0.01,0,HR-IXPWINDi_r2_v1.2.,2013-05-05 05:18:00,
2013-05-05 01:23:00,54.1,47.3,29.92,East,84,0.0,11.0,78,0.00,,,0.01,0,HR-IXPWINDi_r2_v1.2.,2013-05-05 05:23:00,
2013-05-05 01:29:00,53.8,47.7,29.92,NNE,28,6.0,10.0,80,0.00,,,0.01,0,HR-IXPWINDi_r2_v1.2.,2013-05-05 05:29:00,
2013-05-05 01:34:00,53.3,47.6,29.91,East,92,1.0,9.0,81,0.00,,,0.02,0,HR-IXPWINDi_r2_v1.2.,2013-05-05 05:34:00,
2013-05-05 01:39:00,53.3,47.6,29.92,East,94,5.0,8.0,81,0.00,,,0.02,0,HR-IXPWINDi_r2_v1.2.,2013-05-05 05:39:00,
2013-05-05 01:44:00,53.2,47.5,29.92,ESE,103,8.0,11.0,81,0.00,,,0.02,0,HR-IXPWINDi_r2_v1.2.,2013-05-05 05:44:00,
2013-05-05 01:49:00,53.5,47.8,29.90,NE,40,5.0,11.0,81,0.00,,,0.02,0,HR-IXPWINDi_r2_v1.2.,2013-05-05 05:49:00,
2013-05-05 01:55:00,53.3,47.9,29.88,ESE,113,2.0,10.0,82,0.00,,,0.02,0,HR-IXPWINDi_r2_v1.2.,2013-05-05 05:55:00,
2013-05-05 02:00:00,53.3,47.6,29.88,SE,128,15.0,21.0,81,0.00,,,0.02,0,HR-IXPWINDi_r2_v1.2.,2013-05-05 06:00:00,
2013-05-05 02:05:00,53.8,47.7,29.88,NNE,17,3.0,21.0,80,0.00,,,0.02,0,HR-IXPWINDi_r2_v1.2.,2013-05-05 06:05:00,
2013-05-05 02:10:00,53.9,47.8,29.88,SSE,153,14.0,21.0,80,0.00,,,0.02,0,HR-IXPWINDi_r2_v1.2.,2013-05-05 06:10:00,
2013-05-05 02:16:00,54.6,47.5,29.87,SE,146,10.0,25.0,77,0.00,,,0.02,0,HR-IXPWINDi_r2_v1.2.,2013-05-05 06:16:00,
2013-05-05 02:21:00,54.8,47.7,29.87,ESE,103,2.0,26.0,77,0.00,,,0.02,0,HR-IXPWINDi_r2_v1.2.,2013-05-05 06:21:00,
2013-05-05 02:26:00,54.5,47.4,29.87,South,170,5.0,26.0,77,0.00,,,0.02,0,HR-IXPWINDi_r2_v1.2.,2013-05-05 06:26:00,
2013-05-05 02:31:00,54.8,47.7,29.88,SSE,148,2.0,13.0,77,0.00,,,0.02,0,HR-IXPWINDi_r2_v1.2.,2013-05-05 06:31:00,
2013-05-05 02:36:00,55.0,47.5,29.87,ESE,114,4.0,13.0,76,0.00,,,0.02,0,HR-IXPWINDi_r2_v1.2.,2013-05-05 06:36:00,
2013-05-05 02:41:00,55.3,47.8,29.87,East,94,2.0,11.0,76,0.00,,,0.02,0,HR-IXPWINDi_r2_v1.2.,2013-05-05 06:41:00,
2013-05-05 02:46:00,55.1,47.6,29.84,NNW,347,4.0,11.0,76,0.00,,,0.02,0,HR-IXPWINDi_r2_v1.2.,2013-05-05 06:46:00,
2013-05-05 02:52:00,55.1,48.0,29.85,East,100,6.0,15.0,77,0.00,,,0.02,0,HR-IXPWINDi_r2_v1.2.,2013-05-05 06:52:00,
2013-05-05 02:57:00,55.1,48.3,29.87,NW,309,11.0,15.0,78,0.00,,,0.02,0,HR-IXPWINDi_r2_v1.2.,2013-05-05 06:57:00,
2013-05-05 03:02:00,55.2,48.1,29.86,SE,134,0.0,12.0,77,0.00,,,0.02,0,HR-IXPWINDi_r2_v1.2.,2013-05-05 07:02:00,
2013-05-05 03:07:00,55.1,48.3,29.85,ENE,74,4.0,12.0,78,0.00,,,0.03,0,HR-IXPWINDi_r2_v1.2.,2013-05-05 07:07:00,
2013-05-05 03:12:00,54.8,47.7,29.85,SE,129,2.0,15.0,77,0.00,,,0.03,0,HR-IXPWINDi_r2_v1.2.,2013-05-05 07:12:00,
2013-05-05 03:18:00,54.8,47.7,29.85,ENE,76,6.0,19.0,77,0.00,,,0.03,0,HR-IXPWINDi_r2_v1.2.,2013-05-05 07:18:00,
2013-05-05 03:23:00,54.8,48.0,29.85,SE,134,7.0,27.0,78,0.00,,,0.03,0,HR-IXPWINDi_r2_v1.2.,2013-05-05 07:23:00,
2013-05-05 03:28:00,54.2,47.8,29.85,SSE,158,18.0,27.0,79,0.00,,,0.03,0,HR-IXPWINDi_r2_v1.2.,2013-05-05 07:28:00,
2013-05-05 03:33:00,54.4,48.0,29.86,SE,130,21.0,26.0,79,0.00,,,0.03,0,HR-IXPWINDi_r2_v1.2.,2013-05-05 07:33:00,
2013-05-05 03:38:00,54.3,47.5,29.85,NE,42,7.0,26.0,78,0.00,,,0.03,0,HR-IXPWINDi_r2_v1.2.,2013-05-05 07:38:00,
2013-05-05 03:43:00,54.7,47.9,29.86,NNW,345,3.0,24.0,78,0.00,,,0.03,0,HR-IXPWINDi_r2_v1.2.,2013-05-05 07:43:00,
2013-05-05 03:49:00,54.7,47.6,29.87,ESE,108,8.0,24.0,77,0.00,,,0.03,0,HR-IXPWINDi_r2_v1.2.,2013-05-05 07:49:00,
2013-05-05 03:54:00,54.7,47.6,29.87,ESE,113,6.0,19.0,77,0.00,,,0.03,0,HR-IXPWINDi_r2_v1.2.,2013-05-05 07:54:00,
2013-05-05 03:59:00,54.4,48.0,29.87,ESE,113,6.0,19.0,79,0.00,,,0.03,0,HR-IXPWINDi_r2_v1.2.,2013-05-05 07:59:00,
2013-05-05 04:04:00,53.8,47.7,29.87,SSE,149,1.0,19.0,80,0.00,,,0.03,0,HR-IXPWINDi_r2_v1.2.,2013-05-05 08:04:00,
2013-05-05 04:09:00,53.6,47.9,29.86,North,9,4.0,12.0,81,0.00,,,0.03,0,HR-IXPWINDi_r2_v1.2.,2013-05-05 08:09:00,
2013-05-05 04:15:00,53.6,48.2,29.85,ESE,107,4.0,12.0,82,0.00,,,0.03,0,HR-IXPWINDi_r2_v1.2.,2013-05-05 08:15:00,
2013-05-05 04:20:00,52.8,48.0,29.84,NNE,30,3.0,9.0,84,0.00,,,0.03,0,HR-IXPWINDi_r2_v1.2.,2013-05-05 08:20:00,
2013-05-05 04:25:00,52.7,48.3,29.85,SSE,161,5.0,14.0,85,0.00,,,0.03,0,HR-IXPWINDi_r2_v1.2.,2013-05-05 08:25:00,
2013-05-05 04:30:00,53.0,48.6,29.84,SE,132,7.0,14.0,85,0.00,,,0.03,0,HR-IXPWINDi_r2_v1.2.,2013-05-05 08:30:00,
2013-05-05 04:36:00,53.6,48.8,29.85,ESE,117,2.0,11.0,84,0.00,,,0.03,0,HR-IXPWINDi_r2_v1.2.,2013-05-05 08:36:00,
2013-05-05 04:41:00,53.8,48.7,29.85,SSE,159,7.0,16.0,83,0.00,,,0.03,0,HR-IXPWINDi_r2_v1.2.,2013-05-05 08:41:00,
2013-05-05 04:46:00,53.9,49.1,29.85,East,95,6.0,16.0,84,0.00,,,0.03,0,HR-IXPWINDi_r2_v1.2.,2013-05-05 08:46:00,
2013-05-05 04:51:00,53.5,49.0,29.86,SE,133,4.0,11.0,85,0.00,,,0.03,0,HR-IXPWINDi_r2_v1.2.,2013-05-05 08:51:00,
2013-05-05 04:57:00,53.4,48.9,29.85,ESE,117,1.0,11.0,85,0.00,,,0.03,0,HR-IXPWINDi_r2_v1.2.,2013-05-05 08:57:00,
2013-05-05 05:02:00,53.6,49.1,29.85,ESE,106,4.0,6.0,85,0.00,,,0.03,0,HR-IXPWINDi_r2_v1.2.,2013-05-05 09:02:00,
2013-05-05 05:07:00,53.3,48.8,29.84,East,98,14.0,15.0,85,0.00,,,0.03,0,HR-IXPWINDi_r2_v1.2.,2013-05-05 09:07:00,
2013-05-05 05:12:00,53.6,49.1,29.83,East,96,15.0,19.0,85,0.00,,,0.03,0,HR-IXPWINDi_r2_v1.2.,2013-05-05 09:12:00,
2013-05-05 05:17:00,53.8,49.0,29.80,ESE,113,5.0,19.0,84,0.00,,,0.03,0,HR-IXPWINDi_r2_v1.2.,2013-05-05 09:17:00,
2013-05-05 05:22:00,54.1,49.0,29.80,SE,128,16.0,24.0,83,0.00,,,0.03,0,HR-IXPWINDi_r2_v1.2.,2013-05-05 09:22:00,
2013-05-05 05:28:00,54.8,49.0,29.80,SE,127,4.0,24.0,81,0.00,,,0.03,0,HR-IXPWINDi_r2_v1.2.,2013-05-05 09:28:00,
2013-05-05 05:33:00,55.0,49.2,29.80,South,174,16.0,21.0,81,0.00,,,0.03,0,HR-IXPWINDi_r2_v1.2.,2013-05-05 09:33:00,
2013-05-05 05:38:00,55.4,48.9,29.79,SE,142,4.0,24.0,79,0.00,,,0.03,0,HR-IXPWINDi_r2_v1.2.,2013-05-05 09:38:00,
2013-05-05 05:43:00,55.4,48.6,29.80,SE,145,13.0,24.0,78,0.00,,,0.03,0,HR-IXPWINDi_r2_v1.2.,2013-05-05 09:43:00,
2013-05-05 05:49:00,55.8,48.3,29.80,SE,126,7.0,17.0,76,0.00,,,0.03,0,HR-IXPWINDi_r2_v1.2.,2013-05-05 09:49:00,
2013-05-05 05:54:00,55.5,48.0,29.80,ESE,104,2.0,17.0,76,0.00,,,0.04,0,HR-IXPWINDi_r2_v1.2.,2013-05-05 09:54:00,
2013-05-05 05:59:00,55.3,48.2,29.80,SSE,159,4.0,19.0,77,0.00,,,0.04,0,HR-IXPWINDi_r2_v1.2.,2013-05-05 09:59:00,
2013-05-05 06:05:00,55.6,48.1,29.81,SE,132,5.0,30.0,76,0.00,,,0.04,0,HR-IXPWINDi_r2_v1.2.,2013-05-05 10:05:00,
2013-05-05 06:10:00,55.7,48.5,29.81,NNE,13,2.0,30.0,77,0.00,,,0.04,0,HR-IXPWINDi_r2_v1.2.,2013-05-05 10:10:00,
2013-05-05 06:15:00,55.5,48.7,29.82,NNE,13,4.0,23.0,78,0.00,,,0.04,0,HR-IXPWINDi_r2_v1.2.,2013-05-05 10:15:00,
2013-05-05 06:20:00,55.6,48.8,29.82,ESE,123,5.0,22.0,78,0.00,,,0.04,0,HR-IXPWINDi_r2_v1.2.,2013-05-05 10:20:00,
2013-05-05 06:25:00,55.4,48.9,29.82,ESE,103,6.0,22.0,79,0.00,,,0.04,0,HR-IXPWINDi_r2_v1.2.,2013-05-05 10:25:00,
2013-05-05 06:31:00,55.1,48.6,29.82,SSE,161,6.0,18.0,79,0.00,,,0.04,0,HR-IXPWINDi_r2_v1.2.,2013-05-05 10:31:00,
2013-05-05 06:36:00,54.7,48.6,29.79,NNW,346,15.0,23.0,80,0.00,,,0.04,0,HR-IXPWINDi_r2_v1.2.,2013-05-05 10:36:00,
2013-05-05 06:41:00,54.5,48.4,29.79,ENE,74,0.0,25.0,80,0.00,,,0.04,5,HR-IXPWINDi_r2_v1.2.,2013-05-05 10:41:00,
2013-05-05 06:46:00,54.5,48.4,29.80,NE,36,2.0,25.0,80,0.00,,,0.04,16,HR-IXPWINDi_r2_v1.2.,2013-05-05 10:46:00,
2013-05-05 06:51:00,54.0,48.2,29.80,SE,132,18.0,19.0,81,0.00,,,0.04,46,HR-IXPWINDi_r2_v1.2.,2013-05-05 10:51:00,
2013-05-05 06:57:00,55.2,48.7,29.80,SSW,202,7.0,22.0,79,0.00,,,0.04,70,HR-IXPWINDi_r2_v1.2.,2013-05-05 10:57:00,
2013-05-05 07:02:00,55.4,48.9,29.82,SE,132,12.0,22.0,79,0.00,,,0.04,67,HR-IXPWINDi_r2_v1.2.,2013-05-05 11:02:00,
2013-05-05 07:07:00,55.8,48.6,29.82,South,170,13.0,19.0,77,0.00,,,0.04,21,HR-IXPWINDi_r2_v1.2.,2013-05-05 11:07:00,
2013-05-05 07:12:00,55.7,48.9,29.84,SE,144,11.0,18.0,78,0.00,,,0.04,5,HR-IXPWINDi_r2_v1.2.,2013-05-05 11:12:00,
2013-05-05 07:17:00,55.2,48.7,29.83,ESE,107,4.0,20.0,79,0.00,,,0.04,7,HR-IXPWINDi_r2_v1.2.,2013-05-05 11:17:00,
2013-05-05 07:23:00,54.5,48.1,29.84,East,89,4.0,20.0,79,0.00,,,0.04,5,HR-IXPWINDi_r2_v1.2.,2013-05-05 11:23:00,
2013-05-05 07:28:00,53.9,48.1,29.84,SE,138,6.0,19.0,81,0.00,,,0.04,5,HR-IXPWINDi_r2_v1.2.,2013-05-05 11:28:00,
2013-05-05 07:33:00,53.7,48.3,29.84,ENE,67,4.0,12.0,82,0.00,,,0.04,5,HR-IXPWINDi_r2_v1.2.,2013-05-05 11:33:00,
2013-05-05 07:38:00,54.0,48.6,29.84,SE,134,6.0,12.0,82,0.00,,,0.04,0,HR-IXPWINDi_r2_v1.2.,2013-05-05 11:38:00,
2013-05-05 07:43:00,53.6,48.5,29.84,South,172,0.0,8.0,83,0.00,,,0.04,0,HR-IXPWINDi_r2_v1.2.,2013-05-05 11:43:00,
2013-05-05 07:48:00,53.1,48.6,29.85,East,80,1.0,11.0,85,0.00,,,0.04,0,HR-IXPWINDi_r2_v1.2.,2013-05-05 11:48:00,
2013-05-05 07:54:00,53.4,48.6,29.85,North,5,11.0,11.0,84,0.00,,,0.04,5,HR-IXPWINDi_r2_v1.2.,2013-05-05 11:54:00,
2013-05-05 07:59:00,53.5,48.7,29.83,SE,140,5.0,12.0,84,0.00,,,0.04,9,HR-IXPWINDi_r2_v1.2.,2013-05-05 11:59:00,
2013-05-05 08:04:00,53.3,48.8,29.84,NE,42,18.0,18.0,85,0.00,,,0.04,12,HR-IXPWINDi_r2_v1.2.,2013-05-05 12:04:00,
2013-05-05 08:09:00,53.7,48.9,29.83,SSE,157,15.0,18.0,84,0.00,,,0.04,25,HR-IXPWINDi_r2_v1.2.,2013-05-05 12:09:00,
2013-05-05 08:14:00,54.2,48.8,29.84,SSE,150,6.0,18.0,82,0.00,,,0.04,44,HR-IXPWINDi_r2_v1.2.,2013-05-05 12:14:00,
2013-05-05 08:19:00,54.5,48.7,29.85,ESE,117,4.0,18.0,81,0.00,,,0.04,18,HR-IXPWINDi_r2_v1.2.,2013-05-05 12:19:00,
2013-05-05 08:25:00,54.2,48.4,29.84,ESE,114,11.0,18.0,81,0.00,,,0.04,9,HR-IXPWINDi_r2_v1.2.,2013-05-05 12:25:00,
2013-05-05 08:30:00,53.9,48.1,29.84,North,5,1.0,14.0,81,0.00,,,0.04,12,HR-IXPWINDi_r2_v1.2.,2013-05-05 12:30:00,
2013-05-05 08:35:00,53.7,47.9,29.85,SE,138,11.0,20.0,81,0.00,,,0.04,18,HR-IXPWINDi_r2_v1.2.,2013-05-05 12:35:00,
2013-05-05 08:41:00,54.0,48.2,29.85,ESE,120,15.0,20.0,81,0.00,,,0.04,12,HR-IXPWINDi_r2_v1.2.,2013-05-05 12:41:00,
2013-05-05 08:46:00,53.7,47.9,29.84,SSE,161,11.0,17.0,81,0.00,,,0.05,14,HR-IXPWINDi_r2_v1.2.,2013-05-05 12:46:00,
2013-05-05 08:51:00,53.7,48.3,29.84,East,95,6.0,17.0,82,0.00,,,0.05,16,HR-IXPWINDi_r2_v1.2.,2013-05-05 12:51:00,
2013-05-05 08:56:00,53.9,48.5,29.84,SE,134,9.0,30.0,82,0.00,,,0.05,25,HR-IXPWINDi_r2_v1.2.,2013-05-05 12:56:00,
2013-05-05 09:02:00,54.4,48.0,29.83,ESE,122,13.0,30.0,79,0.00,,,0.05,33,HR-IXPWINDi_r2_v1.2.,2013-05-05 13:02:00,
2013-05-05 09:07:00,54.1,48.0,29.83,ESE,123,8.0,23.0,80,0.00,,,0.05,58,HR-IXPWINDi_r2_v1.2.,2013-05-05 13:07:00,
2013-05-05 09:12:00,54.4,48.3,29.83,NNE,23,7.0,19.0,80,0.00,,,0.05,114,HR-IXPWINDi_r2_v1.2.,2013-05-05 13:12:00,
2013-05-05 09:17:00,54.9,48.5,29.83,ESE,119,5.0,23.0,79,0.00,,,0.05,84,HR-IXPWINDi_r2_v1.2.,2013-05-05 13:17:00,
2013-05-05 09:23:00,54.8,48.0,29.84,ESE,117,18.0,23.0,78,0.00,,,0.05,49,HR-IXPWINDi_r2_v1.2.,2013-05-05 13:23:00,
2013-05-05 09:28:00,54.8,48.4,29.84,NNE,25,4.0,18.0,79,0.00,,,0.05,109,HR-IXPWINDi_r2_v1.2.,2013-05-05 13:28:00,
2013-05-05 09:33:00,54.2,48.4,29.83,SSE,165,4.0,18.0,81,0.00,,,0.05,232,HR-IXPWINDi_r2_v1.2.,2013-05-05 13:33:00,
2013-05-05 09:38:00,54.4,48.6,29.84,SE,130,8.0,11.0,81,0.00,,,0.05,93,HR-IXPWINDi_r2_v1.2.,2013-05-05 13:38:00,
2013-05-05 09:44:00,54.5,48.1,29.84,SSE,162,5.0,12.0,79,0.00,,,0.05,76,HR-IXPWINDi_r2_v1.2.,2013-05-05 13:44:00,
2013-05-05 09:49:00,54.8,48.4,29.84,SE,146,7.0,20.0,79,0.00,,,0.05,93,HR-IXPWINDi_r2_v1.2.,2013-05-05 13:49:00,
2013-05-05 09:54:00,54.9,48.1,29.83,East,84,4.0,33.0,78,0.00,,,0.05,67,HR-IXPWINDi_r2_v1.2.,2013-05-05 13:54:00,
2013-05-05 09:59:00,54.7,48.6,29.84,SE,134,2.0,33.0,80,0.00,,,0.05,76,HR-IXPWINDi_r2_v1.2.,2013-05-05 13:59:00,
2013-05-05 10:04:00,54.6,48.5,29.83,ENE,76,4.0,19.0,80,0.00,,,0.05,74,HR-IXPWINDi_r2_v1.2.,2013-05-05 14:04:00,
2013-05-05 10:09:00,54.6,48.8,29.82,ESE,116,4.0,19.0,81,0.00,,,0.05,77,HR-IXPWINDi_r2_v1.2.,2013-05-05 14:09:00,
2013-05-05 10:14:00,54.2,48.8,29.84,SSE,155,2.0,19.0,82,0.00,,,0.05,77,HR-IXPWINDi_r2_v1.2.,2013-05-05 14:14:00,
2013-05-05 10:19:00,54.2,49.1,29.82,ENE,67,4.0,19.0,83,0.00,,,0.05,104,HR-IXPWINDi_r2_v1.2.,2013-05-05 14:19:00,
2013-05-05 10:25:00,54.5,48.7,29.82,SE,136,14.0,15.0,81,0.00,,,0.05,67,HR-IXPWINDi_r2_v1.2.,2013-05-05 14:25:00,
2013-05-05 10:30:00,54.6,48.8,29.83,SE,132,8.0,18.0,81,0.00,,,0.05,53,HR-IXPWINDi_r2_v1.2.,2013-05-05 14:30:00,
2013-05-05 10:35:00,54.6,48.8,29.83,ESE,114,8.0,18.0,81,0.00,,,0.05,49,HR-IXPWINDi_r2_v1.2.,2013-05-05 14:35:00,
2013-05-05 10:40:00,54.6,48.8,29.83,NNW,327,0.0,11.0,81,0.00,,,0.05,39,HR-IXPWINDi_r2_v1.2.,2013-05-05 14:40:00,
2013-05-05 10:46:00,54.6,48.8,29.84,SE,145,13.0,29.0,81,0.00,,,0.05,33,HR-IXPWINDi_r2_v1.2.,2013-05-05 14:46:00,
2013-05-05 10:51:00,54.7,48.6,29.84,SSE,150,14.0,29.0,80,0.00,,,0.05,39,HR-IXPWINDi_r2_v1.2.,2013-05-05 14:51:00,
2013-05-05 10:56:00,54.1,48.7,29.85,ESE,105,4.0,28.0,82,0.00,,,0.05,42,HR-IXPWINDi_r2_v1.2.,2013-05-05 14:56:00,
2013-05-05 11:01:00,53.8,48.4,29.84,ENE,65,2.0,14.0,82,0.00,,,0.05,44,HR-IXPWINDi_r2_v1.2.,2013-05-05 15:01:00,
2013-05-05 11:06:00,53.5,48.7,29.85,East,97,9.0,12.0,84,0.00,,,0.05,32,HR-IXPWINDi_r2_v1.2.,2013-05-05 15:06:00,
2013-05-05 11:12:00,53.6,48.5,29.85,SE,144,2.0,15.0,83,0.00,,,0.05,42,HR-IXPWINDi_r2_v1.2.,2013-05-05 15:12:00,
2013-05-05 11:17:00,53.5,48.4,29.85,East,97,12.0,15.0,83,0.00,,,0.05,118,HR-IXPWINDi_r2_v1.2.,2013-05-05 15:17:00,
2013-05-05 11:22:00,53.6,48.5,29.85,SE,146,4.0,14.0,83,0.00,,,0.05,199,HR-IXPWINDi_r2_v1.2.,2013-05-05 15:22:00,
2013-05-05 11:27:00,53.5,49.0,29.85,East,80,1.0,12.0,85,0.00,,,0.05,142,HR-IXPWINDi_r2_v1.2.,2013-05-05 15:27:00,
2013-05-05 11:32:00,53.5,48.7,29.84,SE,138,7.0,8.0,84,0.00,,,0.05,113,HR-IXPWINDi_r2_v1.2.,2013-05-05 15:32:00,
2013-05-05 11:37:00,53.5,48.7,29.83,SE,126,1.0,9.0,84,0.00,,,0.05,91,HR-IXPWINDi_r2_v1.2.,2013-05-05 15:37:00,
2013-05-05 11:43:00,53.5,48.4,29.83,ESE,111,12.0,13.0,83,0.00,,,0.05,81,HR-IXPWINDi_r2_v1.2.,2013-05-05 15:43:00,
2013-05-05 11:48:00,53.6,48.2,29.83,ESE,117,6.0,22.0,82,0.00,,,0.06,100,HR-IXPWINDi_r2_v1.2.,2013-05-05 15:48:00,
2013-05-05 11:53:00,53.6,47.9,29.82,SE,124,15.0,23.0,81,0.00,,,0.06,156,HR-IXPWINDi_r2_v1.2.,2013-05-05 15:53:00,
2013-05-05 11:58:00,53.5,47.8,29.83,East,98,8.0,23.0,81,0.00,,,0.06,121,HR-IXPWINDi_r2_v1.2.,2013-05-05 15:58:00,
2013-05-05 12:03:00,53.4,47.7,29.83,East,87,12.0,21.0,81,0.00,,,0.06,69,HR-IXPWINDi_r2_v1.2.,2013-05-05 16:03:00,
2013-05-05 12:08:00,53.3,47.6,29.83,ESE,111,5.0,21.0,81,0.00,,,0.06,26,HR-IXPWINDi_r2_v1.2.,2013-05-05 16:08:00,
2013-05-05 12:14:00,53.3,47.6,29.83,SE,146,5.0,28.0,81,0.00,,,0.06,25,HR-IXPWINDi_r2_v1.2.,2013-05-05 16:14:00,
2013-05-05 12:19:00,53.4,47.7,29.83,SE,130,14.0,28.0,81,0.00,,,0.06,32,HR-IXPWINDi_r2_v1.2.,2013-05-05 16:19:00,
2013-05-05 12:24:00,53.4,47.7,29.84,East,95,2.0,23.0,81,0.00,,,0.06,53,HR-IXPWINDi_r2_v1.2.,2013-05-05 16:24:00,
2013-05-05 12:29:00,53.4,47.7,29.84,SE,138,12.0,19.0,81,0.00,,,0.06,144,HR-IXPWINDi_r2_v1.2.,2013-05-05 16:29:00,
2013-05-05 12:34:00,53.5,47.8,29.84,NE,46,10.0,18.0,81,0.00,,,0.06,183,HR-IXPWINDi_r2_v1.2.,2013-05-05 16:34:00,
2013-05-05 12:39:00,53.4,47.7,29.84,ESE,118,7.0,18.0,81,0.00,,,0.06,88,HR-IXPWINDi_r2_v1.2.,2013-05-05 16:39:00,
2013-05-05 12:44:00,53.3,47.6,29.84,North,5,7.0,23.0,81,0.00,,,0.06,192,HR-IXPWINDi_r2_v1.2.,2013-05-05 16:44:00,
2013-05-05 12:49:00,53.6,47.9,29.84,SE,132,6.0,23.0,81,0.00,,,0.06,561,HR-IXPWINDi_r2_v1.2.,2013-05-05 16:49:00,
2013-05-05 12:54:00,54.0,48.2,29.84,South,171,4.0,13.0,81,0.00,,,0.06,105,HR-IXPWINDi_r2_v1.2.,2013-05-05 16:54:00,
2013-05-05 13:00:00,54.2,48.8,29.84,South,182,4.0,16.0,82,0.00,,,0.06,223,HR-IXPWINDi_r2_v1.2.,2013-05-05 17:00:00,
2013-05-05 13:05:00,54.1,48.7,29.83,East,97,2.0,16.0,82,0.00,,,0.06,84,HR-IXPWINDi_r2_v1.2.,2013-05-05 17:05:00,
2013-05-05 13:10:00,54.1,48.7,29.83,SE,126,7.0,13.0,82,0.00,,,0.06,93,HR-IXPWINDi_r2_v1.2.,2013-05-05 17:10:00,
2013-05-05 13:15:00,54.0,48.6,29.83,SE,137,9.0,14.0,82,0.00,,,0.06,134,HR-IXPWINDi_r2_v1.2.,2013-05-05 17:15:00,
2013-05-05 13:20:00,54.1,49.0,29.83,East,92,6.0,14.0,83,0.00,,,0.06,262,HR-IXPWINDi_r2_v1.2.,2013-05-05 17:20:00,
2013-05-05 13:25:00,54.5,49.1,29.84,SE,128,4.0,14.0,82,0.00,,,0.07,302,HR-IXPWINDi_r2_v1.2.,2013-05-05 17:25:00,
2013-05-05 13:30:00,55.0,48.9,29.83,SE,129,8.0,20.0,80,0.00,,,0.07,211,HR-IXPWINDi_r2_v1.2.,2013-05-05 17:30:00,
2013-05-05 13:36:00,54.9,48.5,29.82,East,100,14.0,22.0,79,0.00,,,0.07,269,HR-IXPWINDi_r2_v1.2.,2013-05-05 17:36:00,
2013-05-05 13:41:00,55.0,48.5,29.81,ESE,121,4.0,22.0,79,0.00,,,0.07,387,HR-IXPWINDi_r2_v1.2.,2013-05-05 17:41:00,
2013-05-05 13:46:00,55.8,50.0,29.81,ESE,113,4.0,18.0,81,0.00,,,0.07,694,HR-IXPWINDi_r2_v1.2.,2013-05-05 17:46:00,
2013-05-05 13:51:00,57.0,50.5,29.81,ESE,118,16.0,16.0,79,0.00,,,0.07,766,HR-IXPWINDi_r2_v1.2.,2013-05-05 17:51:00,
2013-05-05 13:56:00,57.1,49.9,29.80,ESE,123,9.0,18.0,77,0.00,,,0.07,1155,HR-IXPWINDi_r2_v1.2.,2013-05-05 17:56:00,
2013-05-05 14:02:00,57.7,50.1,29.80,SE,133,4.0,25.0,76,0.00,,,0.07,1056,HR-IXPWINDi_r2_v1.2.,2013-05-05 18:02:00,
2013-05-05 14:07:00,57.8,49.5,29.80,East,101,13.0,25.0,74,0.00,,,0.07,508,HR-IXPWINDi_r2_v1.2.,2013-05-05 18:07:00,
2013-05-05 14:12:00,57.7,49.8,29.80,SE,131,9.0,24.0,75,0.00,,,0.07,237,HR-IXPWINDi_r2_v1.2.,2013-05-05 18:12:00,
2013-05-05 14:17:00,56.8,50.0,29.80,ESE,105,9.0,24.0,78,0.00,,,0.07,220,HR-IXPWINDi_r2_v1.2.,2013-05-05 18:17:00,
2013-05-05 14:22:00,56.3,50.5,29.80,SE,139,6.0,22.0,81,0.00,,,0.07,311,HR-IXPWINDi_r2_v1.2.,2013-05-05 18:22:00,
2013-05-05 14:27:00,56.4,50.2,29.80,East,90,5.0,22.0,80,0.00,,,0.07,223,HR-IXPWINDi_r2_v1.2.,2013-05-05 18:27:00,
2013-05-05 14:32:00,56.4,49.9,29.80,ESE,120,11.0,29.0,79,0.00,,,0.07,74,HR-IXPWINDi_r2_v1.2.,2013-05-05 18:32:00,
2013-05-05 14:38:00,56.1,49.6,29.79,SE,140,12.0,29.0,79,0.00,,,0.07,76,HR-IXPWINDi_r2_v1.2.,2013-05-05 18:38:00,
2013-05-05 14:43:00,55.8,49.7,29.78,NNW,337,2.0,27.0,80,0.00,,,0.07,167,HR-IXPWINDi_r2_v1.2.,2013-05-05 18:43:00,
2013-05-05 14:48:00,55.8,50.3,29.78,ENE,78,12.0,23.0,82,0.00,,,0.07,388,HR-IXPWINDi_r2_v1.2.,2013-05-05 18:48:00,
2013-05-05 14:53:00,57.0,50.5,29.78,SE,125,4.0,27.0,79,0.00,,,0.07,758,HR-IXPWINDi_r2_v1.2.,2013-05-05 18:53:00,
2013-05-05 14:59:00,58.2,51.3,29.78,SE,132,9.0,27.0,78,0.00,,,0.07,814,HR-IXPWINDi_r2_v1.2.,2013-05-05 18:59:00,
2013-05-05 15:04:00,58.9,50.6,29.78,SE,128,7.0,16.0,74,0.00,,,0.07,302,HR-IXPWINDi_r2_v1.2.,2013-05-05 19:04:00,
2013-05-05 15:09:00,58.4,50.1,29.79,SSE,153,16.0,23.0,74,0.00,,,0.07,165,HR-IXPWINDi_r2_v1.2.,2013-05-05 19:09:00,
2013-05-05 15:14:00,57.9,50.3,29.79,East,86,5.0,23.0,76,0.00,,,0.07,369,HR-IXPWINDi_r2_v1.2.,2013-05-05 19:14:00,
2013-05-05 15:19:00,58.4,50.4,29.79,ESE,103,6.0,23.0,75,0.00,,,0.07,325,HR-IXPWINDi_r2_v1.2.,2013-05-05 19:19:00,
2013-05-05 15:24:00,58.6,51.0,29.79,East,80,3.0,12.0,76,0.00,,,0.07,304,HR-IXPWINDi_r2_v1.2.,2013-05-05 19:24:00,
2013-05-05 15:29:00,58.5,49.8,29.79,East,90,6.0,11.0,73,0.00,,,0.07,323,HR-IXPWINDi_r2_v1.2.,2013-05-05 19:29:00,
2013-05-05 15:34:00,58.4,50.4,29.79,WNW,286,7.0,23.0,75,0.00,,,0.07,279,HR-IXPWINDi_r2_v1.2.,2013-05-05 19:34:00,
2013-05-05 15:40:00,57.7,50.1,29.80,East,92,2.0,23.0,76,0.00,,,0.07,244,HR-IXPWINDi_r2_v1.2.,2013-05-05 19:40:00,
2013-05-05 15:45:00,57.3,50.1,29.80,NNW,336,3.0,16.0,77,0.00,,,0.07,352,HR-IXPWINDi_r2_v1.2.,2013-05-05 19:45:00,
2013-05-05 15:50:00,57.7,50.5,29.79,ESE,105,5.0,16.0,77,0.00,,,0.07,624,HR-IXPWINDi_r2_v1.2.,2013-05-05 19:50:00,
2013-05-05 15:55:00,57.6,50.0,29.80,ESE,102,7.0,15.0,76,0.00,,,0.07,248,HR-IXPWINDi_r2_v1.2.,2013-05-05 19:55:00,
2013-05-05 16:01:00,57.0,49.5,29.79,SSE,154,8.0,17.0,76,0.00,,,0.07,362,HR-IXPWINDi_r2_v1.2.,2013-05-05 20:01:00,
2013-05-05 16:06:00,56.7,49.2,29.79,ESE,121,8.0,17.0,76,0.00,,,0.07,436,HR-IXPWINDi_r2_v1.2.,2013-05-05 20:06:00,
2013-05-05 16:11:00,57.5,50.6,29.79,East,92,14.0,17.0,78,0.00,,,0.07,810,HR-IXPWINDi_r2_v1.2.,2013-05-05 20:11:00,
2013-05-05 16:16:00,58.7,50.7,29.79,SE,127,5.0,17.0,75,0.00,,,0.07,851,HR-IXPWINDi_r2_v1.2.,2013-05-05 20:16:00,
2013-05-05 16:21:00,58.5,49.8,29.79,SSW,212,6.0,22.0,73,0.00,,,0.07,350,HR-IXPWINDi_r2_v1.2.,2013-05-05 20:21:00,
2013-05-05 16:26:00,58.8,49.7,29.78,SE,132,11.0,22.0,72,0.00,,,0.07,814,HR-IXPWINDi_r2_v1.2.,2013-05-05 20:26:00,
2013-05-05 16:31:00,58.6,49.9,29.78,SE,144,8.0,17.0,73,0.00,,,0.07,185,HR-IXPWINDi_r2_v1.2.,2013-05-05 20:31:00,
2013-05-05 16:36:00,58.2,49.2,29.78,ESE,115,9.0,19.0,72,0.00,,,0.07,223,HR-IXPWINDi_r2_v1.2.,2013-05-05 20:36:00,
2013-05-05 16:41:00,58.5,49.8,29.78,SE,128,12.0,21.0,73,0.00,,,0.07,223,HR-IXPWINDi_r2_v1.2.,2013-05-05 20:41:00,
2013-05-05 16:46:00,58.9,50.2,29.78,SSW,201,7.0,24.0,73,0.00,,,0.07,684,HR-IXPWINDi_r2_v1.2.,2013-05-05 20:46:00,
2013-05-05 16:51:00,59.0,49.2,29.79,North,10,7.0,24.0,70,0.00,,,0.08,714,HR-IXPWINDi_r2_v1.2.,2013-05-05 20:51:00,
2013-05-05 16:57:00,59.2,49.4,29.78,SSE,148,10.0,23.0,70,0.00,,,0.08,657,HR-IXPWINDi_r2_v1.2.,2013-05-05 20:57:00,
2013-05-05 17:02:00,58.9,49.1,29.79,ESE,123,8.0,23.0,70,0.00,,,0.08,710,HR-IXPWINDi_r2_v1.2.,2013-05-05 21:02:00,
2013-05-05 17:07:00,59.2,49.0,29.79,NE,39,3.0,21.0,69,0.00,,,0.08,689,HR-IXPWINDi_r2_v1.2.,2013-05-05 21:07:00,
2013-05-05 17:12:00,59.6,49.0,29.78,East,95,13.0,21.0,68,0.00,,,0.08,796,HR-IXPWINDi_r2_v1.2.,2013-05-05 21:12:00,
2013-05-05 17:18:00,58.6,48.4,29.78,East,88,10.0,30.0,69,0.00,,,0.08,141,HR-IXPWINDi_r2_v1.2.,2013-05-05 21:18:00,
2013-05-05 17:23:00,57.8,48.8,29.79,NNW,344,4.0,30.0,72,0.00,,,0.08,156,HR-IXPWINDi_r2_v1.2.,2013-05-05 21:23:00,
2013-05-05 17:28:00,57.6,48.6,29.78,ESE,102,7.0,16.0,72,0.00,,,0.08,125,HR-IXPWINDi_r2_v1.2.,2013-05-05 21:28:00,
2013-05-05 17:33:00,57.5,48.5,29.78,NNE,15,4.0,16.0,72,0.00,,,0.08,100,HR-IXPWINDi_r2_v1.2.,2013-05-05 21:33:00,
2013-05-05 17:38:00,57.5,48.5,29.78,ESE,123,12.0,21.0,72,0.00,,,0.08,257,HR-IXPWINDi_r2_v1.2.,2013-05-05 21:38:00,
2013-05-05 17:44:00,57.6,49.0,29.78,East,84,5.0,23.0,73,0.00,,,0.08,171,HR-IXPWINDi_r2_v1.2.,2013-05-05 21:44:00,
2013-05-05 17:49:00,57.5,48.9,29.77,East,88,4.0,23.0,73,0.00,,,0.08,111,HR-IXPWINDi_r2_v1.2.,2013-05-05 21:49:00,
2013-05-05 17:54:00,57.6,48.6,29.77,ESE,119,7.0,19.0,72,0.00,,,0.08,230,HR-IXPWINDi_r2_v1.2.,2013-05-05 21:54:00,
2013-05-05 17:59:00,57.7,48.3,29.77,ESE,119,8.0,19.0,71,0.00,,,0.08,93,HR-IXPWINDi_r2_v1.2.,2013-05-05 21:59:00,
2013-05-05 18:04:00,57.7,48.7,29.77,SE,146,9.0,18.0,72,0.00,,,0.08,88,HR-IXPWINDi_r2_v1.2.,2013-05-05 22:04:00,
2013-05-05 18:09:00,57.3,48.7,29.78,NE,46,11.0,18.0,73,0.00,,,0.08,72,HR-IXPWINDi_r2_v1.2.,2013-05-05 22:09:00,
2013-05-05 18:15:00,57.2,48.6,29.77,ESE,113,7.0,15.0,73,0.00,,,0.08,30,HR-IXPWINDi_r2_v1.2.,2013-05-05 22:15:00,
2013-05-05 18:20:00,56.8,48.5,29.76,SE,128,6.0,19.0,74,0.00,,,0.08,51,HR-IXPWINDi_r2_v1.2.,2013-05-05 22:20:00,
2013-05-05 18:25:00,56.4,48.9,29.76,ESE,111,6.0,19.0,76,0.00,,,0.08,33,HR-IXPWINDi_r2_v1.2.,2013-05-05 22:25:00,
2013-05-05 18:30:00,56.2,49.0,29.77,SSE,154,2.0,14.0,77,0.00,,,0.08,88,HR-IXPWINDi_r2_v1.2.,2013-05-05 22:30:00,
2013-05-05 18:35:00,56.2,48.7,29.77,ESE,120,5.0,22.0,76,0.00,,,0.08,83,HR-IXPWINDi_r2_v1.2.,2013-05-05 22:35:00,
2013-05-05 18:41:00,56.1,48.6,29.77,NE,48,1.0,24.0,76,0.00,,,0.08,47,HR-IXPWINDi_r2_v1.2.,2013-05-05 22:41:00,
2013-05-05 18:46:00,55.7,49.6,29.77,SE,141,11.0,24.0,80,0.00,,,0.08,16,HR-IXPWINDi_r2_v1.2.,2013-05-05 22:46:00,
2013-05-05 18:51:00,55.3,48.8,29.77,SE,129,5.0,17.0,79,0.00,,,0.08,9,HR-IXPWINDi_r2_v1.2.,2013-05-05 22:51:00,
2013-05-05 18:56:00,55.1,49.0,29.77,SE,141,4.0,17.0,80,0.00,,,0.08,26,HR-IXPWINDi_r2_v1.2.,2013-05-05 22:56:00,
2013-05-05 19:01:00,55.3,48.8,29.76,NE,43,16.0,17.0,79,0.00,,,0.08,32,HR-IXPWINDi_r2_v1.2.,2013-05-05 23:01:00,
2013-05-05 19:06:00,55.8,48.3,29.77,ESE,105,7.0,32.0,76,0.00,,,0.08,32,HR-IXPWINDi_r2_v1.2.,2013-05-05 23:06:00,
2013-05-05 19:11:00,55.9,48.4,29.76,West,273,0.0,32.0,76,0.00,,,0.08,37,HR-IXPWINDi_r2_v1.2.,2013-05-05 23:11:00,
2013-05-05 19:17:00,56.0,48.5,29.76,NE,39,5.0,13.0,76,0.00,,,0.08,28,HR-IXPWINDi_r2_v1.2.,2013-05-05 23:17:00,
2013-05-05 19:22:00,56.0,48.8,29.77,ESE,123,9.0,13.0,77,0.00,,,0.08,23,HR-IXPWINDi_r2_v1.2.,2013-05-05 23:22:00,
2013-05-05 19:27:00,55.5,49.4,29.77,WSW,254,2.0,13.0,80,0.00,,,0.08,7,HR-IXPWINDi_r2_v1.2.,2013-05-05 23:27:00,
2013-05-05 19:32:00,55.0,48.9,29.76,ESE,120,8.0,16.0,80,0.00,,,0.08,7,HR-IXPWINDi_r2_v1.2.,2013-05-05 23:32:00,
2013-05-05 19:37:00,55.0,48.9,29.77,NE,55,0.0,16.0,80,0.00,,,0.08,7,HR-IXPWINDi_r2_v1.2.,2013-05-05 23:37:00,
2013-05-05 19:43:00,54.9,49.1,29.77,ESE,104,9.0,14.0,81,0.00,,,0.08,7,HR-IXPWINDi_r2_v1.2.,2013-05-05 23:43:00,
2013-05-05 19:48:00,55.0,48.9,29.78,SE,138,1.0,11.0,80,0.00,,,0.08,14,HR-IXPWINDi_r2_v1.2.,2013-05-05 23:48:00,
2013-05-05 19:53:00,54.5,49.1,29.78,South,173,7.0,11.0,82,0.00,,,0.08,7,HR-IXPWINDi_r2_v1.2.,2013-05-05 23:53:00,
2013-05-05 19:58:00,54.8,49.3,29.79,West,265,2.0,13.0,82,0.00,,,0.08,0,HR-IXPWINDi_r2_v1.2.,2013-05-05 23:58:00,
2013-05-05 20:03:00,54.6,49.2,29.78,NW,312,2.0,13.0,82,0.00,,,0.08,0,HR-IXPWINDi_r2_v1.2.,2013-05-06 00:03:00,
2013-05-05 20:08:00,54.7,49.6,29.78,SW,221,0.0,5.0,83,0.00,,,0.08,0,HR-IXPWINDi_r2_v1.2.,2013-05-06 00:08:00,
2013-05-05 20:14:00,53.9,49.7,29.79,NW,313,4.0,6.0,86,0.00,,,0.08,0,HR-IXPWINDi_r2_v1.2.,2013-05-06 00:14:00,
2013-05-05 20:19:00,53.3,49.8,29.79,West,269,3.0,6.0,88,0.00,,,0.08,0,HR-IXPWINDi_r2_v1.2.,2013-05-06 00:19:00,
2013-05-05 20:24:00,52.5,49.3,29.79,NW,315,4.0,6.0,89,0.00,,,0.08,0,HR-IXPWINDi_r2_v1.2.,2013-05-06 00:24:00,
2013-05-05 20:29:00,52.0,49.1,29.78,NW,326,0.0,5.0,90,0.00,,,0.08,0,HR-IXPWINDi_r2_v1.2.,2013-05-06 00:29:00,
2013-05-05 20:34:00,52.4,49.8,29.79,SE,129,1.0,12.0,91,0.00,,,0.08,0,HR-IXPWINDi_r2_v1.2.,2013-05-06 00:34:00,
2013-05-05 20:40:00,53.4,49.9,29.78,SSW,202,6.0,12.0,88,0.00,,,0.08,0,HR-IXPWINDi_r2_v1.2.,2013-05-06 00:40:00,
2013-05-05 20:45:00,52.9,49.7,29.79,ESE,103,0.0,8.0,89,0.00,,,0.08,0,HR-IXPWINDi_r2_v1.2.,2013-05-06 00:45:00,
2013-05-05 20:50:00,52.3,49.4,29.79,SW,215,3.0,8.0,90,0.00,,,0.08,0,HR-IXPWINDi_r2_v1.2.,2013-05-06 00:50:00,
2013-05-05 20:55:00,51.7,49.1,29.79,NNW,332,4.0,7.0,91,0.00,,,0.08,0,HR-IXPWINDi_r2_v1.2.,2013-05-06 00:55:00,
2013-05-05 21:00:00,51.9,49.3,29.79,SSW,205,4.0,7.0,91,0.00,,,0.08,0,HR-IXPWINDi_r2_v1.2.,2013-05-06 01:00:00,
2013-05-05 21:05:00,51.9,49.6,29.79,WSW,251,2.0,6.0,92,0.00,,,0.08,0,HR-IXPWINDi_r2_v1.2.,2013-05-06 01:05:00,
2013-05-05 21:10:00,52.0,49.7,29.78,SW,217,1.0,6.0,92,0.00,,,0.08,0,HR-IXPWINDi_r2_v1.2.,2013-05-06 01:10:00,
2013-05-05 21:15:00,52.0,49.7,29.79,SSE,161,4.0,5.0,92,0.00,,,0.08,0,HR-IXPWINDi_r2_v1.2.,2013-05-06 01:15:00,
2013-05-05 21:20:00,51.7,49.7,29.79,SW,215,2.0,5.0,93,0.00,,,0.08,0,HR-IXPWINDi_r2_v1.2.,2013-05-06 01:20:00,
2013-05-05 21:25:00,51.5,49.5,29.79,SW,223,0.0,5.0,93,0.00,,,0.09,0,HR-IXPWINDi_r2_v1.2.,2013-05-06 01:25:00,
2013-05-05 21:31:00,51.1,49.1,29.79,SE,144,5.0,7.0,93,0.00,,,0.09,0,HR-IXPWINDi_r2_v1.2.,2013-05-06 01:31:00,
2013-05-05 21:36:00,50.8,48.8,29.79,NNW,328,4.0,7.0,93,0.00,,,0.09,0,HR-IXPWINDi_r2_v1.2.,2013-05-06 01:36:00,
2013-05-05 21:41:00,50.5,48.5,29.79,SSW,213,2.0,10.0,93,0.00,,,0.09,0,HR-IXPWINDi_r2_v1.2.,2013-05-06 01:41:00,
2013-05-05 21:46:00,50.2,48.5,29.79,SSW,199,4.0,10.0,94,0.00,,,0.09,0,HR-IXPWINDi_r2_v1.2.,2013-05-06 01:46:00,
2013-05-05 21:51:00,50.0,48.3,29.79,SSW,200,7.0,10.0,94,0.00,,,0.09,0,HR-IXPWINDi_r2_v1.2.,2013-05-06 01:51:00,
2013-05-05 21:56:00,49.8,48.1,29.79,SSW,194,0.0,10.0,94,0.00,,,0.09,0,HR-IXPWINDi_r2_v1.2.,2013-05-06 01:56:00,
2013-05-05 22:01:00,49.7,48.0,29.79,SSW,194,2.0,9.0,94,0.00,,,0.09,0,HR-IXPWINDi_r2_v1.2.,2013-05-06 02:01:00,
2013-05-05 22:06:00,49.8,48.1,29.79,NNW,329,0.0,6.0,94,0.00,,,0.09,0,HR-IXPWINDi_r2_v1.2.,2013-05-06 02:06:00,
2013-05-05 22:11:00,49.7,48.0,29.78,North,5,3.0,6.0,94,0.00,,,0.09,0,HR-IXPWINDi_r2_v1.2.,2013-05-06 02:11:00,
2013-05-05 22:17:00,49.7,48.3,29.78,SSW,201,1.0,5.0,95,0.00,,,0.09,0,HR-IXPWINDi_r2_v1.2.,2013-05-06 02:17:00,
2013-05-05 22:22:00,49.9,48.5,29.78,NNW,342,0.0,6.0,95,0.00,,,0.09,0,HR-IXPWINDi_r2_v1.2.,2013-05-06 02:22:00,
2013-05-05 22:27:00,50.2,48.8,29.78,NW,322,8.0,8.0,95,0.00,,,0.09,0,HR-IXPWINDi_r2_v1.2.,2013-05-06 02:27:00,
2013-05-05 22:32:00,50.1,48.7,29.79,SSW,208,4.0,8.0,95,0.00,,,0.09,0,HR-IXPWINDi_r2_v1.2.,2013-05-06 02:32:00,
2013-05-05 22:38:00,50.1,48.7,29.79,WNW,285,2.0,8.0,95,0.00,,,0.09,0,HR-IXPWINDi_r2_v1.2.,2013-05-06 02:38:00,
2013-05-05 22:43:00,50.0,48.6,29.79,West,265,3.0,5.0,95,0.00,,,0.09,0,HR-IXPWINDi_r2_v1.2.,2013-05-06 02:43:00,
2013-05-05 22:48:00,49.9,48.5,29.79,SSW,194,7.0,7.0,95,0.00,,,0.09,0,HR-IXPWINDi_r2_v1.2.,2013-05-06 02:48:00,
2013-05-05 22:54:00,49.6,48.2,29.79,SSW,207,0.0,8.0,95,0.00,,,0.09,0,HR-IXPWINDi_r2_v1.2.,2013-05-06 02:54:00,
2013-05-05 22:59:00,49.6,48.2,29.80,NW,304,3.0,8.0,95,0.00,,,0.09,0,HR-IXPWINDi_r2_v1.2.,2013-05-06 02:59:00,
2013-05-05 23:04:00,49.6,48.2,29.80,West,269,0.0,7.0,95,0.00,,,0.09,0,HR-IXPWINDi_r2_v1.2.,2013-05-06 03:04:00,
2013-05-05 23:09:00,49.6,48.4,29.80,West,269,0.0,7.0,96,0.00,,,0.09,0,HR-IXPWINDi_r2_v1.2.,2013-05-06 03:09:00,
2013-05-05 23:14:00,49.5,48.1,29.80,WSW,248,0.0,4.0,95,0.00,,,0.09,0,HR-IXPWINDi_r2_v1.2.,2013-05-06 03:14:00,
2013-05-05 23:20:00,49.6,48.2,29.80,NW,312,4.0,5.0,95,0.00,,,0.09,0,HR-IXPWINDi_r2_v1.2.,2013-05-06 03:20:00,
2013-05-05 23:25:00,49.7,48.5,29.80,West,273,1.0,7.0,96,0.00,,,0.09,0,HR-IXPWINDi_r2_v1.2.,2013-05-06 03:25:00,
2013-05-05 23:30:00,49.8,48.6,29.79,West,273,0.0,7.0,96,0.00,,,0.09,0,HR-IXPWINDi_r2_v1.2.,2013-05-06 03:30:00,
2013-05-05 23:35:00,49.9,48.7,29.80,NW,317,2.0,3.0,96,0.00,,,0.09,0,HR-IXPWINDi_r2_v1.2.,2013-05-06 03:35:00,
2013-05-05 23:40:00,50.0,48.8,29.80,SE,132,0.0,5.0,96,0.00,,,0.09,0,HR-IXPWINDi_r2_v1.2.,2013-05-06 03:40:00,
2013-05-05 23:45:00,50.0,48.8,29.80,SE,139,5.0,5.0,96,0.00,,,0.09,0,HR-IXPWINDi_r2_v1.2.,2013-05-06 03:45:00,
2013-05-05 23:51:00,50.8,49.6,29.80,ENE,71,1.0,7.0,96,0.00,,,0.09,0,HR-IXPWINDi_r2_v1.2.,2013-05-06 03:51:00,
2013-05-05 23:56:00,50.9,49.7,29.79,NW,323,0.0,7.0,96,0.00,,,0.09,0,HR-IXPWINDi_r2_v1.2.,2013-05-06 03:56:00,